createdAt,value
2023-02-06T00:00:44.858Z,4.99
2023-02-06T00:01:45.235Z,5.02
2023-02-06T00:02:45.549Z,4.96
2023-02-06T00:03:45.828Z,4.95
2023-02-06T00:04:46.071Z,4.99
2023-02-06T00:05:46.451Z,5.02
2023-02-06T00:06:46.654Z,4.99
2023-02-06T00:07:47.006Z,5.05
2023-02-06T00:08:47.330Z,5.02
2023-02-06T00:09:47.588Z,4.98
2023-02-06T00:10:47.747Z,4.96
2023-02-06T00:11:48.156Z,5.02
2023-02-06T00:12:48.434Z,5.01
2023-02-06T00:13:48.767Z,4.98
2023-02-06T00:14:49.089Z,5.01
2023-02-06T00:15:49.451Z,4.95
2023-02-06T00:16:49.696Z,4.95
2023-02-06T00:17:49.904Z,4.96
2023-02-06T00:18:50.216Z,4.95
2023-02-06T00:19:50.585Z,4.98
2023-02-06T00:20:50.944Z,4.95
2023-02-06T00:21:51.210Z,4.95
2023-02-06T00:22:51.383Z,4.98
2023-02-06T00:23:51.699Z,4.96
2023-02-06T00:24:52.049Z,4.88
2023-02-06T00:25:52.461Z,4.91
2023-02-06T00:26:52.648Z,4.86
2023-02-06T00:27:53.969Z,4.89
2023-02-06T00:28:53.245Z,4.84
2023-02-06T00:29:53.618Z,4.80
2023-02-06T00:31:01.831Z,4.86
2023-02-06T00:31:54.306Z,4.80
2023-02-06T00:32:54.413Z,4.77
2023-02-06T00:33:54.779Z,4.77
2023-02-06T00:34:55.118Z,4.80
2023-02-06T00:35:55.353Z,4.77
2023-02-06T00:36:55.656Z,4.80
2023-02-06T00:37:55.986Z,4.80
2023-02-06T00:38:56.296Z,4.76
2023-02-06T00:39:56.631Z,4.76
2023-02-06T00:40:56.796Z,4.77
2023-02-06T00:41:57.265Z,4.72
2023-02-06T00:42:57.439Z,4.72
2023-02-06T00:43:57.753Z,4.67
2023-02-06T00:44:58.052Z,4.69
2023-02-06T00:45:58.367Z,4.67
2023-02-06T00:46:58.701Z,4.69
2023-02-06T00:47:59.107Z,4.69
2023-02-06T00:48:59.212Z,4.65
2023-02-06T00:49:59.570Z,4.65
2023-02-06T00:50:59.843Z,4.65
2023-02-06T00:52:00.180Z,4.67
2023-02-06T00:53:00.546Z,4.64
2023-02-06T00:54:00.827Z,4.62
2023-02-06T00:55:01.162Z,4.65
2023-02-06T00:56:01.515Z,4.61
2023-02-06T00:57:01.903Z,4.61
2023-02-06T00:58:02.045Z,4.57
2023-02-06T00:59:02.268Z,4.55
2023-02-06T01:00:02.623Z,4.61
2023-02-06T01:01:02.906Z,4.59
2023-02-06T01:02:03.335Z,4.59
2023-02-06T01:03:03.542Z,4.62
2023-02-06T01:04:03.894Z,4.64
2023-02-06T01:05:04.112Z,4.59
2023-02-06T01:06:04.416Z,4.52
2023-02-06T01:07:04.691Z,4.52
2023-02-06T01:08:05.186Z,4.59
2023-02-06T01:09:05.365Z,4.52
2023-02-06T01:10:05.585Z,4.50
2023-02-06T01:11:05.864Z,4.46
2023-02-06T01:12:06.213Z,4.43
2023-02-06T01:13:06.407Z,4.44
2023-02-06T01:14:06.719Z,4.46
2023-02-06T01:15:06.983Z,4.43
2023-02-06T01:16:07.366Z,4.42
2023-02-06T01:17:07.652Z,4.43
2023-02-06T01:18:07.982Z,4.43
2023-02-06T01:19:08.271Z,4.40
2023-02-06T01:20:08.641Z,4.44
2023-02-06T01:21:08.944Z,4.39
2023-02-06T01:22:09.362Z,4.40
2023-02-06T01:23:09.538Z,4.42
2023-02-06T01:24:09.878Z,4.40
2023-02-06T01:25:10.159Z,4.37
2023-02-06T01:26:10.439Z,4.40
2023-02-06T01:27:10.716Z,4.39
2023-02-06T01:28:11.108Z,4.37
2023-02-06T01:29:11.282Z,4.37
2023-02-06T01:30:11.613Z,4.32
2023-02-06T01:31:11.999Z,4.37
2023-02-06T01:32:12.167Z,4.36
2023-02-06T01:33:12.462Z,4.33
2023-02-06T01:34:12.760Z,4.33
2023-02-06T01:35:13.049Z,4.33
2023-02-06T01:36:13.370Z,4.33
2023-02-06T01:37:13.686Z,4.28
2023-02-06T01:38:14.052Z,4.29
2023-02-06T01:39:14.370Z,4.28
2023-02-06T01:40:14.662Z,4.34
2023-02-06T01:41:14.950Z,4.34
2023-02-06T01:42:15.288Z,4.32
2023-02-06T01:43:15.596Z,4.37
2023-02-06T01:44:15.902Z,4.37
2023-02-06T01:45:16.198Z,4.43
2023-02-06T01:46:16.521Z,4.39
2023-02-06T01:47:16.789Z,4.40
2023-02-06T01:48:17.154Z,4.40
2023-02-06T01:49:17.437Z,4.42
2023-02-06T01:50:17.781Z,4.46
2023-02-06T01:51:18.094Z,4.44
2023-02-06T01:52:18.406Z,4.39
2023-02-06T01:53:18.706Z,4.40
2023-02-06T01:54:19.008Z,4.37
2023-02-06T01:55:19.305Z,4.37
2023-02-06T01:56:19.658Z,4.43
2023-02-06T01:57:19.925Z,4.40
2023-02-06T01:58:20.257Z,4.40
2023-02-06T01:59:20.567Z,4.42
2023-02-06T02:00:20.873Z,4.36
2023-02-06T02:01:21.144Z,4.36
2023-02-06T02:02:21.548Z,4.34
2023-02-06T02:03:21.846Z,4.34
2023-02-06T02:04:22.162Z,4.33
2023-02-06T02:05:22.394Z,4.36
2023-02-06T02:06:22.757Z,4.29
2023-02-06T02:07:23.060Z,4.32
2023-02-06T02:08:23.346Z,4.21
2023-02-06T02:09:23.631Z,4.21
2023-02-06T02:10:23.958Z,4.22
2023-02-06T02:11:24.313Z,4.22
2023-02-06T02:12:24.442Z,4.29
2023-02-06T02:13:24.785Z,4.25
2023-02-06T02:14:25.103Z,4.26
2023-02-06T02:15:25.367Z,4.24
2023-02-06T02:16:25.789Z,4.21
2023-02-06T02:17:25.931Z,4.21
2023-02-06T02:18:26.303Z,4.16
2023-02-06T02:19:26.601Z,4.10
2023-02-06T02:20:26.891Z,4.10
2023-02-06T02:21:27.203Z,4.07
2023-02-06T02:22:27.513Z,4.07
2023-02-06T02:23:27.819Z,4.06
2023-02-06T02:24:30.252Z,4.04
2023-02-06T02:25:28.396Z,4.04
2023-02-06T02:26:28.743Z,4.06
2023-02-06T02:27:29.086Z,4.04
2023-02-06T02:28:29.355Z,4.03
2023-02-06T02:29:29.717Z,4.06
2023-02-06T02:30:30.136Z,4.01
2023-02-06T02:31:30.463Z,4.04
2023-02-06T02:32:30.643Z,3.98
2023-02-06T02:33:30.928Z,3.98
2023-02-06T02:34:31.253Z,3.94
2023-02-06T02:35:31.585Z,3.96
2023-02-06T02:36:31.886Z,3.92
2023-02-06T02:37:32.141Z,3.90
2023-02-06T02:38:32.500Z,3.88
2023-02-06T02:39:32.789Z,3.86
2023-02-06T02:40:33.082Z,3.85
2023-02-06T02:41:33.422Z,3.89
2023-02-06T02:42:33.714Z,3.96
2023-02-06T02:43:33.998Z,3.89
2023-02-06T02:44:34.345Z,3.94
2023-02-06T02:45:35.179Z,3.94
2023-02-06T02:46:34.953Z,3.92
2023-02-06T02:47:35.207Z,3.92
2023-02-06T02:48:35.567Z,3.90
2023-02-06T02:49:35.871Z,3.90
2023-02-06T02:50:36.152Z,3.88
2023-02-06T02:51:36.492Z,3.89
2023-02-06T02:52:36.808Z,3.86
2023-02-06T02:53:37.116Z,3.85
2023-02-06T02:54:37.438Z,3.83
2023-02-06T02:55:37.975Z,3.83
2023-02-06T02:56:38.113Z,3.83
2023-02-06T02:57:38.346Z,3.88
2023-02-06T02:58:38.710Z,3.80
2023-02-06T02:59:38.977Z,3.80
2023-02-06T03:00:39.358Z,3.82
2023-02-06T03:01:39.620Z,3.85
2023-02-06T03:02:39.993Z,3.85
2023-02-06T03:03:40.308Z,3.86
2023-02-06T03:04:40.618Z,3.90
2023-02-06T03:05:40.930Z,3.89
2023-02-06T03:06:41.221Z,3.90
2023-02-06T03:07:41.479Z,3.92
2023-02-06T03:08:41.820Z,3.96
2023-02-06T03:09:44.246Z,4.01
2023-02-06T03:10:42.416Z,4.01
2023-02-06T03:11:42.709Z,4.00
2023-02-06T03:12:43.050Z,3.98
2023-02-06T03:13:43.345Z,4.01
2023-02-06T03:14:43.709Z,3.98
2023-02-06T03:15:43.993Z,3.98
2023-02-06T03:16:44.409Z,4.03
2023-02-06T03:17:44.621Z,4.01
2023-02-06T03:18:44.946Z,3.97
2023-02-06T03:19:45.209Z,3.92
2023-02-06T03:20:45.560Z,3.96
2023-02-06T03:21:45.829Z,4.00
2023-02-06T03:22:46.158Z,4.01
2023-02-06T03:23:46.436Z,4.00
2023-02-06T03:24:46.745Z,3.96
2023-02-06T03:25:47.034Z,3.97
2023-02-06T03:26:47.366Z,3.98
2023-02-06T03:27:47.642Z,3.97
2023-02-06T03:28:47.954Z,3.94
2023-02-06T03:29:48.237Z,4.00
2023-02-06T03:30:48.596Z,4.00
2023-02-06T03:31:48.828Z,3.98
2023-02-06T03:32:49.134Z,3.97
2023-02-06T03:33:49.423Z,3.94
2023-02-06T03:34:49.732Z,3.86
2023-02-06T03:35:50.014Z,3.90
2023-02-06T03:36:50.310Z,3.78
2023-02-06T03:37:50.590Z,3.85
2023-02-06T03:38:50.957Z,3.83
2023-02-06T03:39:51.214Z,3.85
2023-02-06T03:40:51.584Z,3.86
2023-02-06T03:41:51.887Z,3.92
2023-02-06T03:42:52.221Z,3.88
2023-02-06T03:43:52.485Z,3.88
2023-02-06T03:44:52.827Z,3.86
2023-02-06T03:45:53.161Z,3.83
2023-02-06T03:46:53.400Z,3.80
2023-02-06T03:47:53.677Z,3.76
2023-02-06T03:48:54.035Z,3.76
2023-02-06T03:49:54.343Z,3.75
2023-02-06T03:50:54.569Z,3.78
2023-02-06T03:51:54.899Z,3.71
2023-02-06T03:52:55.255Z,3.70
2023-02-06T03:53:55.542Z,3.65
2023-02-06T03:54:55.881Z,3.64
2023-02-06T03:55:56.154Z,3.65
2023-02-06T03:56:56.483Z,3.62
2023-02-06T03:57:56.797Z,3.58
2023-02-06T03:58:57.187Z,3.60
2023-02-06T03:59:57.470Z,3.62
2023-02-06T04:00:57.826Z,3.60
2023-02-06T04:01:58.243Z,3.50
2023-02-06T04:02:58.443Z,3.49
2023-02-06T04:03:58.757Z,3.53
2023-02-06T04:04:59.075Z,3.52
2023-02-06T04:05:59.335Z,3.50
2023-02-06T04:06:59.673Z,3.58
2023-02-06T04:07:59.943Z,3.54
2023-02-06T04:09:00.331Z,3.53
2023-02-06T04:10:00.607Z,3.60
2023-02-06T04:11:00.950Z,3.57
2023-02-06T04:12:01.229Z,3.58
2023-02-06T04:13:01.564Z,3.61
2023-02-06T04:14:01.867Z,3.57
2023-02-06T04:15:02.182Z,3.54
2023-02-06T04:16:02.471Z,3.52
2023-02-06T04:17:02.825Z,3.54
2023-02-06T04:18:03.936Z,3.54
2023-02-06T04:19:03.375Z,3.58
2023-02-06T04:20:03.648Z,3.58
2023-02-06T04:21:04.001Z,3.52
2023-02-06T04:22:04.278Z,3.52
2023-02-06T04:23:04.582Z,3.57
2023-02-06T04:24:04.810Z,3.53
2023-02-06T04:25:05.160Z,3.54
2023-02-06T04:26:05.431Z,3.57
2023-02-06T04:27:05.712Z,3.57
2023-02-06T04:28:06.024Z,3.58
2023-02-06T04:29:06.306Z,3.53
2023-02-06T04:30:06.600Z,3.57
2023-02-06T04:31:07.036Z,3.60
2023-02-06T04:32:07.091Z,3.54
2023-02-06T04:33:07.429Z,3.54
2023-02-06T04:34:07.679Z,3.53
2023-02-06T04:35:08.017Z,3.54
2023-02-06T04:36:08.301Z,3.58
2023-02-06T04:37:08.613Z,3.60
2023-02-06T04:38:08.868Z,3.62
2023-02-06T04:39:09.209Z,3.60
2023-02-06T04:40:09.420Z,3.62
2023-02-06T04:41:09.810Z,3.64
2023-02-06T04:42:10.098Z,3.65
2023-02-06T04:43:10.388Z,3.65
2023-02-06T04:44:10.666Z,3.72
2023-02-06T04:45:11.000Z,3.68
2023-02-06T04:46:11.323Z,3.71
2023-02-06T04:47:11.582Z,3.72
2023-02-06T04:48:11.918Z,3.72
2023-02-06T04:49:12.238Z,3.72
2023-02-06T04:50:12.517Z,3.80
2023-02-06T04:51:12.848Z,3.80
2023-02-06T04:52:13.126Z,3.80
2023-02-06T04:53:13.459Z,3.86
2023-02-06T04:54:13.816Z,3.85
2023-02-06T04:55:14.107Z,3.85
2023-02-06T04:56:14.394Z,3.88
2023-02-06T04:57:14.723Z,3.83
2023-02-06T04:58:15.002Z,3.86
2023-02-06T04:59:15.391Z,3.88
2023-02-06T05:00:15.762Z,3.90
2023-02-06T05:01:15.947Z,3.89
2023-02-06T05:02:16.210Z,3.83
2023-02-06T05:03:16.429Z,3.83
2023-02-06T05:04:16.695Z,3.82
2023-02-06T05:05:17.032Z,3.86
2023-02-06T05:06:17.308Z,3.89
2023-02-06T05:07:17.584Z,3.89
2023-02-06T05:08:17.874Z,3.85
2023-02-06T05:09:18.207Z,3.96
2023-02-06T05:10:18.486Z,3.90
2023-02-06T05:11:18.870Z,3.89
2023-02-06T05:12:19.134Z,3.92
2023-02-06T05:13:19.462Z,3.92
2023-02-06T05:14:19.723Z,3.96
2023-02-06T05:15:20.076Z,3.98
2023-02-06T05:16:20.381Z,3.96
2023-02-06T05:17:20.602Z,4.01
2023-02-06T05:18:20.917Z,4.00
2023-02-06T05:19:21.213Z,4.04
2023-02-06T05:20:21.527Z,4.04
2023-02-06T05:21:21.829Z,4.03
2023-02-06T05:22:22.110Z,4.01
2023-02-06T05:23:22.437Z,4.01
2023-02-06T05:24:22.753Z,4.00
2023-02-06T05:25:23.023Z,4.03
2023-02-06T05:26:23.332Z,3.94
2023-02-06T05:27:23.682Z,3.94
2023-02-06T05:28:23.894Z,3.98
2023-02-06T05:29:24.183Z,4.00
2023-02-06T05:30:24.455Z,3.98
2023-02-06T05:31:25.019Z,3.98
2023-02-06T05:32:25.113Z,4.00
2023-02-06T05:33:25.388Z,4.03
2023-02-06T05:34:25.592Z,3.98
2023-02-06T05:35:25.855Z,4.01
2023-02-06T05:36:26.175Z,4.04
2023-02-06T05:37:26.433Z,4.00
2023-02-06T05:38:26.774Z,3.98
2023-02-06T05:39:26.954Z,4.01
2023-02-06T05:40:27.221Z,4.00
2023-02-06T05:41:27.578Z,4.01
2023-02-06T05:42:27.802Z,4.03
2023-02-06T05:43:28.224Z,4.03
2023-02-06T05:44:28.515Z,4.00
2023-02-06T05:45:28.757Z,4.06
2023-02-06T05:46:29.054Z,4.10
2023-02-06T05:47:29.379Z,4.12
2023-02-06T05:48:29.698Z,4.12
2023-02-06T05:49:29.961Z,4.16
2023-02-06T05:50:30.248Z,4.18
2023-02-06T05:51:30.500Z,4.16
2023-02-06T05:52:30.760Z,4.18
2023-02-06T05:53:31.058Z,4.22
2023-02-06T05:54:31.332Z,4.25
2023-02-06T05:55:31.646Z,4.28
2023-02-06T05:56:31.945Z,4.32
2023-02-06T05:57:32.265Z,4.28
2023-02-06T05:58:32.436Z,4.21
2023-02-06T05:59:32.816Z,4.15
2023-02-06T06:00:33.186Z,4.10
2023-02-06T06:01:33.418Z,4.18
2023-02-06T06:02:37.594Z,4.16
2023-02-06T06:03:34.140Z,4.21
2023-02-06T06:04:34.297Z,4.19
2023-02-06T06:05:34.754Z,4.18
2023-02-06T06:06:34.867Z,4.25
2023-02-06T06:07:35.453Z,4.22
2023-02-06T06:08:35.459Z,4.32
2023-02-06T06:09:35.653Z,4.26
2023-02-06T06:10:36.042Z,4.33
2023-02-06T06:11:36.278Z,4.36
2023-02-06T06:12:36.507Z,4.33
2023-02-06T06:13:36.816Z,4.36
2023-02-06T06:14:37.080Z,4.34
2023-02-06T06:15:37.761Z,4.32
2023-02-06T06:16:37.666Z,4.33
2023-02-06T06:17:37.902Z,4.34
2023-02-06T06:18:38.180Z,4.42
2023-02-06T06:19:38.532Z,4.40
2023-02-06T06:20:38.820Z,4.42
2023-02-06T06:21:39.351Z,4.43
2023-02-06T06:22:39.326Z,4.43
2023-02-06T06:23:39.698Z,4.43
2023-02-06T06:24:39.985Z,4.46
2023-02-06T06:25:40.194Z,4.43
2023-02-06T06:26:40.541Z,4.39
2023-02-06T06:27:40.999Z,4.37
2023-02-06T06:28:41.180Z,4.37
2023-02-06T06:29:41.489Z,4.34
2023-02-06T06:30:41.857Z,4.37
2023-02-06T06:31:41.959Z,4.25
2023-02-06T06:32:42.226Z,4.21
2023-02-06T06:33:42.529Z,4.28
2023-02-06T06:34:42.813Z,4.25
2023-02-06T06:35:43.367Z,4.19
2023-02-06T06:36:43.377Z,4.21
2023-02-06T06:37:43.743Z,4.19
2023-02-06T06:38:43.950Z,4.18
2023-02-06T06:39:44.413Z,4.14
2023-02-06T06:40:44.652Z,4.19
2023-02-06T06:41:44.840Z,4.16
2023-02-06T06:42:45.283Z,4.14
2023-02-06T06:43:45.511Z,4.18
2023-02-06T06:44:45.715Z,4.21
2023-02-06T06:45:45.965Z,4.21
2023-02-06T06:46:46.356Z,4.19
2023-02-06T06:47:46.433Z,4.16
2023-02-06T06:48:47.205Z,4.26
2023-02-06T06:49:46.935Z,4.26
2023-02-06T06:50:47.155Z,4.29
2023-02-06T06:51:47.599Z,4.34
2023-02-06T06:52:47.777Z,4.36
2023-02-06T06:53:48.159Z,4.33
2023-02-06T06:54:48.415Z,4.32
2023-02-06T06:55:48.750Z,4.21
2023-02-06T06:56:48.936Z,4.15
2023-02-06T06:57:49.203Z,4.16
2023-02-06T06:58:49.428Z,4.15
2023-02-06T06:59:49.791Z,4.10
2023-02-06T07:00:50.168Z,4.10
2023-02-06T07:01:50.393Z,4.16
2023-02-06T07:02:50.683Z,4.28
2023-02-06T07:03:51.006Z,4.28
2023-02-06T07:04:51.232Z,4.32
2023-02-06T07:05:53.217Z,4.36
2023-02-06T07:06:51.706Z,4.37
2023-02-06T07:07:51.952Z,4.40
2023-02-06T07:08:52.666Z,4.43
2023-02-06T07:09:52.582Z,4.43
2023-02-06T07:10:52.748Z,4.50
2023-02-06T07:11:53.187Z,4.50
2023-02-06T07:12:53.502Z,4.47
2023-02-06T07:13:53.699Z,4.52
2023-02-06T07:14:53.950Z,4.55
2023-02-06T07:15:54.255Z,4.51
2023-02-06T07:16:54.489Z,4.52
2023-02-06T07:17:55.038Z,4.44
2023-02-06T07:18:55.091Z,4.50
2023-02-06T07:19:55.564Z,4.46
2023-02-06T07:20:55.767Z,4.46
2023-02-06T07:21:56.005Z,4.44
2023-02-06T07:22:56.254Z,4.46
2023-02-06T07:23:56.514Z,4.51
2023-02-06T07:24:56.809Z,4.50
2023-02-06T07:25:57.062Z,4.51
2023-02-06T07:26:57.298Z,4.43
2023-02-06T07:28:01.491Z,4.33
2023-02-06T07:28:57.897Z,4.42
2023-02-06T07:29:58.162Z,4.37
2023-02-06T07:30:58.395Z,4.43
2023-02-06T07:31:58.722Z,4.39
2023-02-06T07:32:58.933Z,4.42
2023-02-06T07:33:59.249Z,4.39
2023-02-06T07:34:59.505Z,4.40
2023-02-06T07:36:01.665Z,4.42
2023-02-06T07:37:00.010Z,4.37
2023-02-06T07:38:00.384Z,4.43
2023-02-06T07:39:00.637Z,4.42
2023-02-06T07:40:00.896Z,4.44
2023-02-06T07:41:01.184Z,4.47
2023-02-06T07:42:01.437Z,4.50
2023-02-06T07:43:01.778Z,4.46
2023-02-06T07:44:02.002Z,4.47
2023-02-06T07:45:02.269Z,4.46
2023-02-06T07:46:02.651Z,4.46
2023-02-06T07:47:02.903Z,4.47
2023-02-06T07:48:03.195Z,4.42
2023-02-06T07:49:03.436Z,4.47
2023-02-06T07:50:03.790Z,4.42
2023-02-06T07:51:04.058Z,4.36
2023-02-06T07:52:04.397Z,4.33
2023-02-06T07:53:04.633Z,4.33
2023-02-06T07:54:04.916Z,4.29
2023-02-06T07:55:05.189Z,4.32
2023-02-06T07:56:05.459Z,4.29
2023-02-06T07:57:05.733Z,4.29
2023-02-06T07:58:05.980Z,4.25
2023-02-06T07:59:06.200Z,4.29
2023-02-06T08:00:06.578Z,4.28
2023-02-06T08:01:06.861Z,4.29
2023-02-06T08:02:07.170Z,4.36
2023-02-06T08:03:07.359Z,4.33
2023-02-06T08:04:07.706Z,4.39
2023-02-06T08:05:07.891Z,4.39
2023-02-06T08:06:08.168Z,4.46
2023-02-06T08:07:08.452Z,4.44
2023-02-06T08:08:08.691Z,4.42
2023-02-06T08:09:08.960Z,4.43
2023-02-06T08:10:09.175Z,4.50
2023-02-06T08:11:09.458Z,4.40
2023-02-06T08:12:11.785Z,4.39
2023-02-06T08:13:10.025Z,4.39
2023-02-06T08:14:10.268Z,4.43
2023-02-06T08:15:10.532Z,4.39
2023-02-06T08:16:10.836Z,4.43
2023-02-06T08:17:11.073Z,4.46
2023-02-06T08:18:11.325Z,4.46
2023-02-06T08:19:11.625Z,4.51
2023-02-06T08:20:11.838Z,4.47
2023-02-06T08:21:12.080Z,4.47
2023-02-06T08:22:12.352Z,4.50
2023-02-06T08:23:12.672Z,4.47
2023-02-06T08:24:13.380Z,4.50
2023-02-06T08:25:13.176Z,4.57
2023-02-06T08:26:13.571Z,4.52
2023-02-06T08:27:13.829Z,4.44
2023-02-06T08:28:14.112Z,4.44
2023-02-06T08:29:14.384Z,4.43
2023-02-06T08:30:14.612Z,4.50
2023-02-06T08:31:14.935Z,4.46
2023-02-06T08:32:15.155Z,4.51
2023-02-06T08:33:15.373Z,4.47
2023-02-06T08:34:15.817Z,4.46
2023-02-06T08:35:15.981Z,4.47
2023-02-06T08:36:16.368Z,4.57
2023-02-06T08:37:16.676Z,4.58
2023-02-06T08:38:16.881Z,4.61
2023-02-06T08:39:17.147Z,4.62
2023-02-06T08:40:17.337Z,4.70
2023-02-06T08:41:17.775Z,4.69
2023-02-06T08:42:17.961Z,4.69
2023-02-06T08:43:18.197Z,4.72
2023-02-06T08:44:18.457Z,4.75
2023-02-06T08:45:18.693Z,4.83
2023-02-06T08:46:19.039Z,4.76
2023-02-06T08:47:19.265Z,4.76
2023-02-06T08:48:19.500Z,4.76
2023-02-06T08:49:19.827Z,4.75
2023-02-06T08:50:20.055Z,4.76
2023-02-06T08:51:20.280Z,4.80
2023-02-06T08:52:20.685Z,4.79
2023-02-06T08:53:20.874Z,4.72
2023-02-06T08:54:21.139Z,4.76
2023-02-06T08:55:25.252Z,4.73
2023-02-06T08:56:21.744Z,4.72
2023-02-06T08:57:22.095Z,4.79
2023-02-06T08:58:22.361Z,4.80
2023-02-06T08:59:22.594Z,4.86
2023-02-06T09:00:22.856Z,4.86
2023-02-06T09:01:23.140Z,4.88
2023-02-06T09:02:23.502Z,4.94
2023-02-06T09:03:23.715Z,4.88
2023-02-06T09:04:23.965Z,4.83
2023-02-06T09:05:24.237Z,4.89
2023-02-06T09:06:24.495Z,4.83
2023-02-06T09:07:24.766Z,4.88
2023-02-06T09:08:25.065Z,4.92
2023-02-06T09:09:25.284Z,4.94
2023-02-06T09:10:27.655Z,4.95
2023-02-06T09:11:25.947Z,4.94
2023-02-06T09:12:26.229Z,4.99
2023-02-06T09:13:26.474Z,4.98
2023-02-06T09:14:26.741Z,5.02
2023-02-06T09:15:26.985Z,5.04
2023-02-06T09:16:27.367Z,5.04
2023-02-06T09:17:27.636Z,5.04
2023-02-06T09:18:27.940Z,5.05
2023-02-06T09:19:28.373Z,5.05
2023-02-06T09:20:28.458Z,5.10
2023-02-06T09:21:28.707Z,5.12
2023-02-06T09:22:29.151Z,5.16
2023-02-06T09:23:29.274Z,5.13
2023-02-06T09:24:29.573Z,5.20
2023-02-06T09:25:29.827Z,5.17
2023-02-06T09:26:30.075Z,5.13
2023-02-06T09:27:30.340Z,5.13
2023-02-06T09:28:30.595Z,5.16
2023-02-06T09:29:30.896Z,5.14
2023-02-06T09:30:32.085Z,5.16
2023-02-06T09:31:31.473Z,5.17
2023-02-06T09:32:31.903Z,5.13
2023-02-06T09:33:32.238Z,5.14
2023-02-06T09:34:32.272Z,5.17
2023-02-06T09:35:32.528Z,5.12
2023-02-06T09:36:32.816Z,5.10
2023-02-06T09:37:33.077Z,5.07
2023-02-06T09:38:33.353Z,5.09
2023-02-06T09:39:33.569Z,5.10
2023-02-06T09:40:33.807Z,4.98
2023-02-06T09:41:34.220Z,4.95
2023-02-06T09:42:34.391Z,4.96
2023-02-06T09:43:35.587Z,4.95
2023-02-06T09:44:34.877Z,4.84
2023-02-06T09:45:35.548Z,4.83
2023-02-06T09:46:35.440Z,4.77
2023-02-06T09:47:35.652Z,4.77
2023-02-06T09:48:35.938Z,4.80
2023-02-06T09:49:36.183Z,4.75
2023-02-06T09:50:36.476Z,4.67
2023-02-06T09:51:36.743Z,4.62
2023-02-06T09:52:37.047Z,4.70
2023-02-06T09:53:37.291Z,4.76
2023-02-06T09:54:37.537Z,4.80
2023-02-06T09:55:38.001Z,4.72
2023-02-06T09:56:38.136Z,4.76
2023-02-06T09:57:38.370Z,4.64
2023-02-06T09:58:38.598Z,4.69
2023-02-06T09:59:38.913Z,4.73
2023-02-06T10:00:39.124Z,4.79
2023-02-06T10:01:39.486Z,4.79
2023-02-06T10:02:39.698Z,4.88
2023-02-06T10:03:39.965Z,4.95
2023-02-06T10:04:40.236Z,5.01
2023-02-06T10:05:40.560Z,5.07
2023-02-06T10:06:40.776Z,5.07
2023-02-06T10:07:41.062Z,5.09
2023-02-06T10:08:41.363Z,5.17
2023-02-06T10:09:41.619Z,5.20
2023-02-06T10:10:41.898Z,5.05
2023-02-06T10:11:42.141Z,5.02
2023-02-06T10:12:42.384Z,5.07
2023-02-06T10:13:42.738Z,5.14
2023-02-06T10:14:42.953Z,5.17
2023-02-06T10:15:43.185Z,5.22
2023-02-06T10:16:43.470Z,5.22
2023-02-06T10:17:43.727Z,5.27
2023-02-06T10:18:44.026Z,5.28
2023-02-06T10:19:44.242Z,5.25
2023-02-06T10:20:44.525Z,5.22
2023-02-06T10:21:44.807Z,5.25
2023-02-06T10:22:45.085Z,5.20
2023-02-06T10:23:47.477Z,5.20
2023-02-06T10:24:45.680Z,5.14
2023-02-06T10:25:45.923Z,5.10
2023-02-06T10:26:46.198Z,5.05
2023-02-06T10:27:46.508Z,5.01
2023-02-06T10:28:46.783Z,5.01
2023-02-06T10:29:47.016Z,5.05
2023-02-06T10:30:47.299Z,5.01
2023-02-06T10:31:47.620Z,4.99
2023-02-06T10:32:47.827Z,5.07
2023-02-06T10:33:48.080Z,5.13
2023-02-06T10:34:48.369Z,5.12
2023-02-06T10:35:48.642Z,5.20
2023-02-06T10:36:48.931Z,5.23
2023-02-06T10:37:49.183Z,5.22
2023-02-06T10:38:49.933Z,5.28
2023-02-06T10:39:49.730Z,5.34
2023-02-06T10:40:49.995Z,5.40
2023-02-06T10:41:50.276Z,5.38
2023-02-06T10:42:50.576Z,5.45
2023-02-06T10:43:50.805Z,5.46
2023-02-06T10:44:51.624Z,5.49
2023-02-06T10:45:51.349Z,5.46
2023-02-06T10:46:51.712Z,5.50
2023-02-06T10:47:51.982Z,5.56
2023-02-06T10:48:53.583Z,5.53
2023-02-06T10:49:52.606Z,5.60
2023-02-06T10:50:52.877Z,5.70
2023-02-06T10:51:53.118Z,5.74
2023-02-06T10:52:53.446Z,5.86
2023-02-06T10:53:53.658Z,5.92
2023-02-06T10:54:53.936Z,5.96
2023-02-06T10:55:54.629Z,6.01
2023-02-06T10:56:54.516Z,6.04
2023-02-06T10:57:54.820Z,6.00
2023-02-06T10:58:55.069Z,5.98
2023-02-06T10:59:55.321Z,6.04
2023-02-06T11:00:55.579Z,6.11
2023-02-06T11:01:55.952Z,6.09
2023-02-06T11:03:06.687Z,6.11
2023-02-06T11:03:57.305Z,6.07
2023-02-06T11:04:56.539Z,5.98
2023-02-06T11:05:56.829Z,5.89
2023-02-06T11:06:57.112Z,5.78
2023-02-06T11:07:57.406Z,5.78
2023-02-06T11:08:57.667Z,5.77
2023-02-06T11:09:57.914Z,5.73
2023-02-06T11:10:58.591Z,5.66
2023-02-06T11:11:58.518Z,5.66
2023-02-06T11:12:58.828Z,5.64
2023-02-06T11:13:59.027Z,5.70
2023-02-06T11:14:59.418Z,5.66
2023-02-06T11:15:59.756Z,5.68
2023-02-06T11:16:59.958Z,5.60
2023-02-06T11:18:00.287Z,5.59
2023-02-06T11:19:00.475Z,5.63
2023-02-06T11:20:00.763Z,5.71
2023-02-06T11:21:01.043Z,5.89
2023-02-06T11:22:01.337Z,5.96
2023-02-06T11:23:02.487Z,6.00
2023-02-06T11:24:01.899Z,6.10
2023-02-06T11:25:02.206Z,6.25
2023-02-06T11:26:02.487Z,6.36
2023-02-06T11:27:02.775Z,6.38
2023-02-06T11:28:03.053Z,6.38
2023-02-06T11:29:03.245Z,6.38
2023-02-06T11:30:03.562Z,6.41
2023-02-06T11:31:03.792Z,6.35
2023-02-06T11:32:04.097Z,6.44
2023-02-06T11:33:05.071Z,6.51
2023-02-06T11:34:04.641Z,6.40
2023-02-06T11:35:04.941Z,6.40
2023-02-06T11:36:05.147Z,6.38
2023-02-06T11:37:05.413Z,6.33
2023-02-06T11:38:05.731Z,6.29
2023-02-06T11:39:05.984Z,6.30
2023-02-06T11:40:06.234Z,6.29
2023-02-06T11:41:06.475Z,6.10
2023-02-06T11:42:06.750Z,6.10
2023-02-06T11:43:07.025Z,6.63
2023-02-06T11:44:07.275Z,7.24
2023-02-06T11:45:07.561Z,7.94
2023-02-06T11:46:07.802Z,7.96
2023-02-06T11:47:08.085Z,7.71
2023-02-06T11:48:08.291Z,7.60
2023-02-06T11:49:08.602Z,7.84
2023-02-06T11:50:08.840Z,7.71
2023-02-06T11:51:09.135Z,8.17
2023-02-06T11:52:09.404Z,8.97
2023-02-06T11:53:09.668Z,9.71
2023-02-06T11:54:09.964Z,10.53
2023-02-06T11:55:10.254Z,11.35
2023-02-06T11:56:10.561Z,12.08
2023-02-06T11:57:10.767Z,12.34
2023-02-06T11:58:11.026Z,12.60
2023-02-06T11:59:11.439Z,12.26
2023-02-06T12:00:11.640Z,11.86
2023-02-06T12:01:11.870Z,11.21
2023-02-06T12:02:12.201Z,10.66
2023-02-06T12:03:12.469Z,10.21
2023-02-06T12:04:12.729Z,10.00
2023-02-06T12:05:12.983Z,9.40
2023-02-06T12:06:13.244Z,8.94
2023-02-06T12:07:13.518Z,8.93
2023-02-06T12:08:13.810Z,8.72
2023-02-06T12:09:14.049Z,8.54
2023-02-06T12:10:14.293Z,8.58
2023-02-06T12:11:14.574Z,8.75
2023-02-06T12:12:14.852Z,8.54
2023-02-06T12:13:15.090Z,8.28
2023-02-06T12:14:15.393Z,8.25
2023-02-06T12:15:39.972Z,8.18
2023-02-06T12:16:16.842Z,8.04
2023-02-06T12:17:16.136Z,7.92
2023-02-06T12:18:16.355Z,7.82
2023-02-06T12:19:16.641Z,7.75
2023-02-06T12:20:16.886Z,7.69
2023-02-06T12:21:17.221Z,7.59
2023-02-06T12:22:17.469Z,7.49
2023-02-06T12:23:17.719Z,7.50
2023-02-06T12:24:17.962Z,7.44
2023-02-06T12:25:18.231Z,7.41
2023-02-06T12:26:18.496Z,7.40
2023-02-06T12:27:18.728Z,7.41
2023-02-06T12:28:19.001Z,7.34
2023-02-06T12:29:19.259Z,7.29
2023-02-06T12:30:19.502Z,7.24
2023-02-06T12:31:20.012Z,7.23
2023-02-06T12:32:20.036Z,7.13
2023-02-06T12:33:20.495Z,7.08
2023-02-06T12:34:20.558Z,7.02
2023-02-06T12:35:20.816Z,6.98
2023-02-06T12:36:21.061Z,6.98
2023-02-06T12:37:21.314Z,7.01
2023-02-06T12:38:21.591Z,6.98
2023-02-06T12:39:21.840Z,6.89
2023-02-06T12:40:22.124Z,6.87
2023-02-06T12:41:22.365Z,6.90
2023-02-06T12:42:22.633Z,6.97
2023-02-06T12:43:22.906Z,7.52
2023-02-06T12:44:23.170Z,8.14
2023-02-06T12:45:23.489Z,8.51
2023-02-06T12:46:23.739Z,8.99
2023-02-06T12:47:23.979Z,9.40
2023-02-06T12:48:24.286Z,9.58
2023-02-06T12:49:24.589Z,9.34
2023-02-06T12:50:24.861Z,9.40
2023-02-06T12:51:25.152Z,9.76
2023-02-06T12:52:25.389Z,10.00
2023-02-06T12:53:25.685Z,9.68
2023-02-06T12:54:25.925Z,9.31
2023-02-06T12:55:26.235Z,8.93
2023-02-06T12:56:26.953Z,9.39
2023-02-06T12:57:26.847Z,9.81
2023-02-06T12:58:27.074Z,9.78
2023-02-06T12:59:27.392Z,9.99
2023-02-06T13:00:27.598Z,9.70
2023-02-06T13:01:32.312Z,9.67
2023-02-06T13:02:29.322Z,9.35
2023-02-06T13:03:28.492Z,9.10
2023-02-06T13:04:28.753Z,8.81
2023-02-06T13:05:29.019Z,8.66
2023-02-06T13:06:29.284Z,8.53
2023-02-06T13:07:30.841Z,8.35
2023-02-06T13:08:29.750Z,8.22
2023-02-06T13:09:30.534Z,8.11
2023-02-06T13:10:30.317Z,7.96
2023-02-06T13:11:30.609Z,7.77
2023-02-06T13:12:30.817Z,7.63
2023-02-06T13:13:31.240Z,7.59
2023-02-06T13:14:31.416Z,7.56
2023-02-06T13:15:31.742Z,7.52
2023-02-06T13:16:31.943Z,7.45
2023-02-06T13:17:32.193Z,7.40
2023-02-06T13:18:32.468Z,7.37
2023-02-06T13:19:32.717Z,7.31
2023-02-06T13:20:33.438Z,7.35
2023-02-06T13:21:33.296Z,7.44
2023-02-06T13:22:33.555Z,7.40